Time;durP1;ratioP1;P1;durP2;ratioP2;P2;SDS_P1;SDS_P2;PMS_P1;PMS_P2;Temp;Humidity;BMP_temperature;BMP_pressure;BME280_temperature;BME280_humidity;BME280_pressure;Samples;Min_cycle;Max_cycle;Signal;HPM_P1;HPM_P2
2021/11/05 00:00:15;;;;;;;2.67;2.38;;;;;;;;;;4985770;28;20517;-65
2021/11/05 00:03:00;;;;;;;4.77;2.43;;;;;;;;;;4987499;28;20029;-65
2021/11/05 00:05:46;;;;;;;4.55;2.67;;;;;;;;;;4990638;28;20668;-65
2021/11/05 00:08:31;;;;;;;5.35;2.60;;;;;;;;;;4987024;28;20030;-68
2021/11/05 00:11:16;;;;;;;4.38;2.50;;;;;;;;;;4991157;28;20030;-64
2021/11/05 00:14:01;;;;;;;4.38;2.22;;;;;;;;;;4991495;28;20052;-65
2021/11/05 00:16:47;;;;;;;4.63;3.28;;;;;;;;;;5012187;28;20170;-64
2021/11/05 00:19:33;;;;;;;3.40;2.17;;;;;;;;;;5008722;28;20096;-64
2021/11/05 00:22:18;;;;;;;3.65;2.35;;;;;;;;;;5006031;28;20488;-65
2021/11/05 00:25:06;;;;;;;3.20;2.15;;;;;;;;;;5015924;28;20021;-66
2021/11/05 00:27:51;;;;;;;2.47;1.98;;;;;;;;;;5005585;28;20037;-60
2021/11/05 00:30:36;;;;;;;3.35;2.67;;;;;;;;;;5016242;28;20034;-57
2021/11/05 00:33:22;;;;;;;3.22;2.20;;;;;;;;;;5015518;28;20052;-57
2021/11/05 00:36:13;;;;;;;3.63;2.58;;;;;;;;;;5010279;28;20056;-58
2021/11/05 00:38:58;;;;;;;3.72;2.45;;;;;;;;;;5013393;28;20353;-53
2021/11/05 00:41:47;;;;;;;4.20;2.42;;;;;;;;;;5008228;28;20056;-56
2021/11/05 00:44:32;;;;;;;5.05;2.50;;;;;;;;;;5002710;28;20571;-65
2021/11/05 00:47:17;;;;;;;2.25;2.03;;;;;;;;;;5001574;28;20033;-54
2021/11/05 00:50:03;;;;;;;3.42;2.33;;;;;;;;;;5012761;28;20029;-66
2021/11/05 00:52:49;;;;;;;4.55;2.58;;;;;;;;;;5004498;28;20227;-66
2021/11/05 00:55:34;;;;;;;3.38;2.40;;;;;;;;;;5012584;28;20640;-65
2021/11/05 00:58:19;;;;;;;4.50;2.58;;;;;;;;;;5011167;28;20030;-65
2021/11/05 01:01:04;;;;;;;4.38;2.53;;;;;;;;;;5014765;28;20059;-64
2021/11/05 01:03:50;;;;;;;5.22;2.25;;;;;;;;;;5013397;28;20034;-58
2021/11/05 01:06:35;;;;;;;4.45;2.25;;;;;;;;;;5002410;28;20031;-57
2021/11/05 01:09:20;;;;;;;5.45;2.80;;;;;;;;;;5011865;28;20488;-58
2021/11/05 01:12:06;;;;;;;5.22;2.40;;;;;;;;;;5003778;28;20080;-57
2021/11/05 01:14:52;;;;;;;4.80;2.78;;;;;;;;;;5012984;28;20661;-58
2021/11/05 01:17:37;;;;;;;3.40;2.60;;;;;;;;;;5013916;28;20546;-57
2021/11/05 01:20:23;;;;;;;4.15;2.72;;;;;;;;;;5012948;28;20056;-58
2021/11/05 01:23:08;;;;;;;6.15;2.83;;;;;;;;;;5012647;28;20025;-61
2021/11/05 01:25:53;;;;;;;5.45;2.63;;;;;;;;;;5014211;28;20021;-60
2021/11/05 01:28:38;;;;;;;6.57;3.33;;;;;;;;;;5014295;28;20028;-61
2021/11/05 01:31:24;;;;;;;4.25;2.83;;;;;;;;;;5010141;28;20033;-60
2021/11/05 01:34:09;;;;;;;5.95;2.40;;;;;;;;;;5015287;28;20409;-60
2021/11/05 01:36:54;;;;;;;2.55;1.95;;;;;;;;;;5013688;28;20033;-61
2021/11/05 01:39:40;;;;;;;4.22;2.60;;;;;;;;;;5008572;28;20033;-59
2021/11/05 01:42:25;;;;;;;3.50;2.28;;;;;;;;;;5011884;28;20037;-56
2021/11/05 01:45:11;;;;;;;3.22;2.15;;;;;;;;;;5013738;28;20021;-65
2021/11/05 01:47:56;;;;;;;3.88;2.50;;;;;;;;;;5009077;28;20029;-65
2021/11/05 01:50:42;;;;;;;4.00;2.88;;;;;;;;;;5003687;28;20029;-65
2021/11/05 01:53:27;;;;;;;4.00;2.70;;;;;;;;;;5014445;28;20040;-66
2021/11/05 01:56:12;;;;;;;4.57;2.70;;;;;;;;;;5010020;28;20484;-65
2021/11/05 01:58:58;;;;;;;4.38;2.90;;;;;;;;;;5005503;28;20480;-56
2021/11/05 02:01:43;;;;;;;4.85;2.85;;;;;;;;;;5010990;28;20112;-54
2021/11/05 02:04:28;;;;;;;3.80;2.80;;;;;;;;;;5010904;28;20053;-57
2021/11/05 02:07:14;;;;;;;6.07;2.80;;;;;;;;;;5002320;28;20041;-54
2021/11/05 02:10:01;;;;;;;3.53;2.67;;;;;;;;;;5011579;28;20075;-59
2021/11/05 02:12:46;;;;;;;5.95;3.42;;;;;;;;;;5011395;28;20203;-56
2021/11/05 02:15:32;;;;;;;5.03;3.67;;;;;;;;;;5000043;28;20497;-58
2021/11/05 02:18:18;;;;;;;4.40;2.83;;;;;;;;;;5012419;28;20033;-69
2021/11/05 02:21:04;;;;;;;6.95;3.30;;;;;;;;;;5013599;28;20038;-62
2021/11/05 02:23:49;;;;;;;5.15;3.47;;;;;;;;;;5020423;28;20057;-62
2021/11/05 02:26:35;;;;;;;5.68;4.00;;;;;;;;;;5013088;28;20084;-63
2021/11/05 02:29:20;;;;;;;5.35;3.83;;;;;;;;;;5008602;28;20029;-63
2021/11/05 02:32:06;;;;;;;5.65;3.60;;;;;;;;;;5012256;28;20047;-62
2021/11/05 02:34:51;;;;;;;5.43;3.75;;;;;;;;;;5012359;28;20751;-67
2021/11/05 02:37:37;;;;;;;4.65;2.78;;;;;;;;;;5012809;28;20108;-59
2021/11/05 02:40:22;;;;;;;4.55;2.55;;;;;;;;;;5013170;28;20745;-60
2021/11/05 02:43:07;;;;;;;5.55;4.03;;;;;;;;;;5010582;28;20052;-59
2021/11/05 02:45:53;;;;;;;4.63;3.40;;;;;;;;;;5012507;28;20046;-59
2021/11/05 02:48:38;;;;;;;6.97;3.38;;;;;;;;;;5011540;28;20021;-56
2021/11/05 02:51:24;;;;;;;5.88;3.30;;;;;;;;;;5005588;28;20435;-58
2021/11/05 02:54:09;;;;;;;5.03;3.63;;;;;;;;;;5006398;28;20038;-59
2021/11/05 02:56:54;;;;;;;5.70;3.10;;;;;;;;;;5005517;28;20026;-65
2021/11/05 02:59:40;;;;;;;5.78;3.65;;;;;;;;;;5012261;28;20033;-66
2021/11/05 03:02:25;;;;;;;4.30;3.30;;;;;;;;;;5002876;28;20034;-66
2021/11/05 03:05:11;;;;;;;5.75;3.65;;;;;;;;;;5005529;28;20026;-66
2021/11/05 03:07:57;;;;;;;4.47;3.50;;;;;;;;;;5001102;28;20121;-66
2021/11/05 03:10:42;;;;;;;5.20;3.13;;;;;;;;;;5008685;28;20174;-65
2021/11/05 03:13:27;;;;;;;5.25;3.45;;;;;;;;;;5012678;28;20033;-65
2021/11/05 03:16:13;;;;;;;6.90;3.60;;;;;;;;;;5012591;28;20197;-62
2021/11/05 03:18:58;;;;;;;5.50;3.50;;;;;;;;;;5007743;28;20029;-61
2021/11/05 03:21:44;;;;;;;4.20;3.28;;;;;;;;;;5001136;28;20069;-61
2021/11/05 03:24:29;;;;;;;7.60;4.20;;;;;;;;;;5000957;28;20029;-63
2021/11/05 03:27:14;;;;;;;4.38;3.40;;;;;;;;;;5012468;28;20030;-63
2021/11/05 03:30:00;;;;;;;6.32;3.05;;;;;;;;;;5011234;28;20036;-61
2021/11/05 03:32:46;;;;;;;6.15;3.90;;;;;;;;;;5012132;28;20037;-69
2021/11/05 03:35:31;;;;;;;4.53;3.25;;;;;;;;;;5007142;28;20423;-61
2021/11/05 03:38:16;;;;;;;4.35;2.80;;;;;;;;;;5003811;28;20556;-62
2021/11/05 03:41:02;;;;;;;4.75;2.85;;;;;;;;;;5008527;28;20048;-62
2021/11/05 03:43:49;;;;;;;3.80;3.05;;;;;;;;;;5017267;28;20033;-61
2021/11/05 03:46:34;;;;;;;4.93;3.50;;;;;;;;;;4990025;28;20092;-61
2021/11/05 03:49:20;;;;;;;4.78;3.45;;;;;;;;;;5016961;28;20030;-65
2021/11/05 03:52:05;;;;;;;4.43;3.20;;;;;;;;;;5016106;28;20029;-62
2021/11/05 03:54:50;;;;;;;5.38;3.22;;;;;;;;;;5016075;28;20108;-62
2021/11/05 03:57:36;;;;;;;4.13;3.40;;;;;;;;;;5013659;28;20114;-62
2021/11/05 04:00:21;;;;;;;4.75;3.42;;;;;;;;;;5001036;28;20049;-62
2021/11/05 04:03:06;;;;;;;4.85;3.63;;;;;;;;;;5010649;28;20728;-63
2021/11/05 04:05:52;;;;;;;5.53;3.75;;;;;;;;;;5011569;28;20040;-64
2021/11/05 04:08:37;;;;;;;4.25;3.08;;;;;;;;;;5009814;28;20038;-67
2021/11/05 04:11:22;;;;;;;3.95;3.42;;;;;;;;;;5015261;28;20029;-70
2021/11/05 04:14:08;;;;;;;6.35;3.33;;;;;;;;;;5007619;28;20531;-71
2021/11/05 04:16:53;;;;;;;3.20;2.50;;;;;;;;;;5001158;28;20024;-71
2021/11/05 04:19:39;;;;;;;3.35;2.83;;;;;;;;;;4995774;28;20065;-70
2021/11/05 04:22:24;;;;;;;3.58;2.72;;;;;;;;;;5010436;28;20038;-70
2021/11/05 04:25:09;;;;;;;5.93;3.05;;;;;;;;;;5015805;28;20065;-69
2021/11/05 04:27:55;;;;;;;4.72;3.00;;;;;;;;;;5006180;28;20381;-62
2021/11/05 04:30:40;;;;;;;4.80;2.72;;;;;;;;;;5015507;28;20021;-65
2021/11/05 04:33:25;;;;;;;3.30;2.60;;;;;;;;;;5011406;28;20056;-62
2021/11/05 04:36:11;;;;;;;4.60;2.60;;;;;;;;;;5015826;28;20025;-64
2021/11/05 04:38:56;;;;;;;3.47;2.60;;;;;;;;;;5000088;28;20450;-64
2021/11/05 04:41:42;;;;;;;4.07;2.33;;;;;;;;;;5011202;28;20045;-64
2021/11/05 04:44:27;;;;;;;4.47;3.10;;;;;;;;;;5010011;28;20608;-62
2021/11/05 04:47:12;;;;;;;4.47;3.10;;;;;;;;;;5014474;28;20025;-57
2021/11/05 04:49:57;;;;;;;4.28;2.45;;;;;;;;;;5029451;28;20083;-58
2021/11/05 04:52:49;;;;;;;4.72;3.28;;;;;;;;;;5014784;28;20211;-59
2021/11/05 04:55:34;;;;;;;5.10;2.63;;;;;;;;;;5004011;28;20430;-57
2021/11/05 04:58:19;;;;;;;4.88;3.38;;;;;;;;;;5012614;28;20064;-59
2021/11/05 05:01:05;;;;;;;5.50;2.90;;;;;;;;;;5015421;28;20037;-57
2021/11/05 05:03:50;;;;;;;4.03;2.88;;;;;;;;;;5004058;28;20516;-57
2021/11/05 05:06:35;;;;;;;6.15;2.95;;;;;;;;;;5001393;28;20033;-62
2021/11/05 05:09:20;;;;;;;5.03;2.63;;;;;;;;;;5004402;28;20026;-62
2021/11/05 05:12:06;;;;;;;4.45;3.25;;;;;;;;;;5007676;28;20029;-62
2021/11/05 05:14:51;;;;;;;2.53;2.08;;;;;;;;;;4996943;28;20129;-62
2021/11/05 05:17:37;;;;;;;3.75;2.40;;;;;;;;;;4984487;28;20034;-62
2021/11/05 05:20:22;;;;;;;3.78;2.50;;;;;;;;;;4984047;28;20549;-62
2021/11/05 05:23:08;;;;;;;4.75;2.15;;;;;;;;;;4989616;28;20367;-59
2021/11/05 05:25:53;;;;;;;4.00;2.72;;;;;;;;;;4986670;28;20077;-62
2021/11/05 05:28:38;;;;;;;50.17;37.00;;;;;;;;;;4986533;28;20031;-61
2021/11/05 05:31:23;;;;;;;24.27;17.98;;;;;;;;;;5002495;28;20094;-63
2021/11/05 05:34:09;;;;;;;3.92;3.30;;;;;;;;;;4983813;28;20026;-62
2021/11/05 05:36:54;;;;;;;3.75;2.58;;;;;;;;;;4975394;28;20030;-62
2021/11/05 05:39:39;;;;;;;4.53;3.22;;;;;;;;;;4987896;28;20038;-62
2021/11/05 05:42:24;;;;;;;6.47;2.60;;;;;;;;;;4989358;28;20045;-64
2021/11/05 05:45:09;;;;;;;3.72;2.72;;;;;;;;;;4988485;28;20088;-64
2021/11/05 05:47:55;;;;;;;4.75;2.55;;;;;;;;;;4973430;28;20030;-64
2021/11/05 05:50:40;;;;;;;2.38;1.92;;;;;;;;;;4987180;28;20026;-63
2021/11/05 05:53:26;;;;;;;3.78;2.60;;;;;;;;;;4989013;28;20030;-65
2021/11/05 05:56:11;;;;;;;4.78;2.60;;;;;;;;;;4980419;28;20030;-63
2021/11/05 05:58:56;;;;;;;4.53;2.22;;;;;;;;;;4984371;28;20093;-61
2021/11/05 06:01:42;;;;;;;4.45;2.45;;;;;;;;;;4981555;28;20045;-59
2021/11/05 06:04:27;;;;;;;2.72;2.10;;;;;;;;;;4987821;28;20511;-59
2021/11/05 06:07:12;;;;;;;3.28;2.40;;;;;;;;;;4983065;28;20085;-60
2021/11/05 06:09:57;;;;;;;4.72;2.70;;;;;;;;;;4988044;28;20573;-58
2021/11/05 06:12:43;;;;;;;3.58;2.15;;;;;;;;;;4982317;28;20058;-59
2021/11/05 06:15:28;;;;;;;3.50;2.20;;;;;;;;;;4987282;28;20050;-58
2021/11/05 06:18:13;;;;;;;3.17;2.20;;;;;;;;;;4985030;28;20034;-69
2021/11/05 06:20:59;;;;;;;3.53;2.47;;;;;;;;;;4998531;28;20090;-63
2021/11/05 06:23:44;;;;;;;3.45;2.45;;;;;;;;;;4985800;28;20061;-62
2021/11/05 06:26:29;;;;;;;3.70;2.17;;;;;;;;;;4984954;28;20034;-64
2021/11/05 06:29:15;;;;;;;3.55;2.15;;;;;;;;;;4998214;28;20030;-61
2021/11/05 06:32:01;;;;;;;3.05;2.13;;;;;;;;;;4986961;28;20348;-63
2021/11/05 06:34:46;;;;;;;4.28;2.97;;;;;;;;;;4982796;28;20059;-62
2021/11/05 06:37:31;;;;;;;6.07;3.17;;;;;;;;;;4985590;28;20547;-53
2021/11/05 06:40:16;;;;;;;12.98;8.80;;;;;;;;;;4981422;28;20042;-58
2021/11/05 06:43:02;;;;;;;36.05;26.88;;;;;;;;;;4972157;28;20438;-59
2021/11/05 06:45:47;;;;;;;10.52;7.30;;;;;;;;;;4978966;28;20037;-59
2021/11/05 06:48:36;;;;;;;5.10;3.65;;;;;;;;;;4986055;28;20030;-62
2021/11/05 06:51:21;;;;;;;5.68;3.72;;;;;;;;;;4987283;28;20038;-59
2021/11/05 06:54:06;;;;;;;4.63;3.33;;;;;;;;;;4974841;28;20105;-63
2021/11/05 06:56:51;;;;;;;4.10;3.00;;;;;;;;;;4979230;28;20390;-57
2021/11/05 06:59:37;;;;;;;6.30;3.33;;;;;;;;;;4972202;28;20039;-61
2021/11/05 07:02:22;;;;;;;6.47;3.92;;;;;;;;;;4977298;28;20058;-60
2021/11/05 07:05:08;;;;;;;5.53;3.38;;;;;;;;;;4976635;28;20540;-59
2021/11/05 07:07:54;;;;;;;5.03;3.50;;;;;;;;;;4980761;28;20046;-60
2021/11/05 07:10:39;;;;;;;9.18;4.28;;;;;;;;;;4979881;28;20091;-60
2021/11/05 07:13:25;;;;;;;5.55;3.20;;;;;;;;;;4984194;28;20223;-60
2021/11/05 07:16:10;;;;;;;5.78;3.42;;;;;;;;;;4985205;28;20445;-62
2021/11/05 07:18:56;;;;;;;7.68;3.90;;;;;;;;;;4989195;28;20026;-65
2021/11/05 07:21:41;;;;;;;6.05;3.72;;;;;;;;;;4990140;28;20038;-63
2021/11/05 07:24:27;;;;;;;7.80;4.18;;;;;;;;;;4985359;28;20116;-62
2021/11/05 07:27:12;;;;;;;5.13;3.83;;;;;;;;;;4991565;28;20129;-62
2021/11/05 07:29:58;;;;;;;6.80;4.15;;;;;;;;;;4989001;28;20073;-65
2021/11/05 07:32:47;;;;;;;6.82;3.90;;;;;;;;;;5003684;28;20597;-66
2021/11/05 07:35:33;;;;;;;5.70;3.05;;;;;;;;;;4974651;28;20041;-64
2021/11/05 07:38:19;;;;;;;5.05;3.45;;;;;;;;;;4990791;28;20038;-61
2021/11/05 07:41:05;;;;;;;5.38;3.20;;;;;;;;;;4988472;28;20036;-62
2021/11/05 07:43:50;;;;;;;5.43;2.80;;;;;;;;;;4991271;28;20042;-61
2021/11/05 07:46:36;;;;;;;7.35;3.30;;;;;;;;;;4991541;28;20114;-63
2021/11/05 07:49:21;;;;;;;7.20;3.33;;;;;;;;;;4988761;28;20030;-64
2021/11/05 07:52:07;;;;;;;5.72;3.35;;;;;;;;;;4989128;28;20033;-63
2021/11/05 07:54:52;;;;;;;5.85;3.92;;;;;;;;;;4989726;28;20522;-64
2021/11/05 07:57:38;;;;;;;7.70;4.25;;;;;;;;;;4987333;28;20039;-64
2021/11/05 08:00:23;;;;;;;5.93;3.15;;;;;;;;;;4989671;28;20531;-63
2021/11/05 08:03:09;;;;;;;30.88;23.17;;;;;;;;;;4988515;28;20030;-63
2021/11/05 08:05:54;;;;;;;8.73;5.75;;;;;;;;;;4989036;28;20038;-65
2021/11/05 08:08:39;;;;;;;7.10;3.97;;;;;;;;;;4991434;28;20030;-60
2021/11/05 08:11:29;;;;;;;6.38;3.95;;;;;;;;;;4990608;28;20033;-61
2021/11/05 08:14:14;;;;;;;6.95;4.05;;;;;;;;;;4998005;28;20072;-59
2021/11/05 08:16:59;;;;;;;7.13;4.07;;;;;;;;;;5011887;28;20445;-60
2021/11/05 08:19:45;;;;;;;5.78;3.33;;;;;;;;;;4996897;28;20032;-62
2021/11/05 08:22:30;;;;;;;4.57;2.95;;;;;;;;;;5015580;28;20045;-62
2021/11/05 08:25:17;;;;;;;5.28;3.00;;;;;;;;;;5011255;28;20025;-68
2021/11/05 08:28:02;;;;;;;4.55;2.75;;;;;;;;;;5014434;28;20558;-63
2021/11/05 08:30:49;;;;;;;4.65;2.88;;;;;;;;;;5012574;28;20033;-61
2021/11/05 08:33:34;;;;;;;7.18;3.45;;;;;;;;;;5010363;28;20037;-61
2021/11/05 08:36:21;;;;;;;3.95;2.50;;;;;;;;;;5014571;28;20350;-60
2021/11/05 08:39:06;;;;;;;3.75;2.67;;;;;;;;;;5016705;28;20033;-61
2021/11/05 08:41:52;;;;;;;4.93;2.80;;;;;;;;;;5012558;28;20120;-62
2021/11/05 08:44:37;;;;;;;11.13;7.60;;;;;;;;;;5012502;28;20044;-64
2021/11/05 08:47:22;;;;;;;10.02;3.97;;;;;;;;;;5011103;28;20492;-65
2021/11/05 08:50:10;;;;;;;4.18;2.20;;;;;;;;;;5010953;28;20449;-65
2021/11/05 08:52:56;;;;;;;2.45;1.83;;;;;;;;;;5014678;28;20044;-65
2021/11/05 08:55:41;;;;;;;3.88;1.98;;;;;;;;;;5012758;28;20057;-65
2021/11/05 08:58:26;;;;;;;3.25;1.90;;;;;;;;;;5007918;28;20035;-64
2021/11/05 09:01:12;;;;;;;3.53;2.28;;;;;;;;;;5015863;28;20044;-65
2021/11/05 09:03:58;;;;;;;3.13;2.15;;;;;;;;;;5011757;28;20033;-62
2021/11/05 09:06:44;;;;;;;4.28;2.13;;;;;;;;;;5015505;28;20021;-61
2021/11/05 09:09:30;;;;;;;3.47;1.85;;;;;;;;;;5012333;28;20071;-61
2021/11/05 09:12:16;;;;;;;3.67;1.80;;;;;;;;;;5015629;28;20561;-63
2021/11/05 09:15:01;;;;;;;6.60;1.65;;;;;;;;;;5012371;28;20048;-60
2021/11/05 09:17:47;;;;;;;4.00;1.60;;;;;;;;;;5011780;28;20120;-61
2021/11/05 09:20:33;;;;;;;3.53;1.83;;;;;;;;;;5022767;28;20033;-62
2021/11/05 09:23:18;;;;;;;3.45;1.60;;;;;;;;;;5007769;28;20121;-64
2021/11/05 09:26:04;;;;;;;3.85;1.70;;;;;;;;;;5013703;28;20037;-63
2021/11/05 09:28:49;;;;;;;10.52;6.53;;;;;;;;;;5011963;28;20053;-60
2021/11/05 09:31:34;;;;;;;5.55;2.22;;;;;;;;;;5014026;28;20480;-61
2021/11/05 09:34:19;;;;;;;2.53;1.60;;;;;;;;;;5014237;28;20364;-61
2021/11/05 09:37:05;;;;;;;3.20;1.58;;;;;;;;;;5009576;28;20030;-61
2021/11/05 09:39:51;;;;;;;2.25;2.05;;;;;;;;;;5012022;28;20385;-61
2021/11/05 09:42:36;;;;;;;2.47;1.60;;;;;;;;;;5009771;28;20061;-64
2021/11/05 09:45:23;;;;;;;3.95;1.40;;;;;;;;;;5007952;28;20033;-66
2021/11/05 09:48:09;;;;;;;4.53;1.48;;;;;;;;;;5014768;28;20087;-67
2021/11/05 09:50:54;;;;;;;2.17;1.50;;;;;;;;;;5010214;28;20423;-66
2021/11/05 09:53:40;;;;;;;3.42;1.40;;;;;;;;;;5014944;28;20039;-65
2021/11/05 09:56:25;;;;;;;2.83;1.98;;;;;;;;;;5012646;28;20453;-65
2021/11/05 09:59:10;;;;;;;3.17;1.80;;;;;;;;;;5012674;28;20506;-64
2021/11/05 10:01:56;;;;;;;2.28;1.50;;;;;;;;;;5012916;28;20033;-65
2021/11/05 10:04:42;;;;;;;2.00;1.77;;;;;;;;;;5011779;28;20034;-62
2021/11/05 10:07:27;;;;;;;3.92;1.80;;;;;;;;;;5012076;28;20029;-62
2021/11/05 10:10:13;;;;;;;47.55;34.85;;;;;;;;;;5008182;28;20177;-60
2021/11/05 10:13:01;;;;;;;5.22;3.60;;;;;;;;;;5012044;28;20476;-61
2021/11/05 10:15:48;;;;;;;2.72;1.83;;;;;;;;;;5012506;28;20045;-63
2021/11/05 10:18:33;;;;;;;3.72;2.88;;;;;;;;;;5012854;28;20377;-61
2021/11/05 10:21:19;;;;;;;4.75;3.00;;;;;;;;;;5010244;28;20064;-61
2021/11/05 10:24:05;;;;;;;3.92;2.65;;;;;;;;;;5005994;28;20036;-61
2021/11/05 10:26:50;;;;;;;4.25;2.85;;;;;;;;;;5010113;28;20261;-62
2021/11/05 10:29:36;;;;;;;3.25;2.53;;;;;;;;;;5010863;28;20030;-61
2021/11/05 10:32:21;;;;;;;8.02;2.75;;;;;;;;;;5011977;28;20472;-61
2021/11/05 10:35:15;;;;;;;6.93;3.70;;;;;;;;;;5011619;28;20049;-65
2021/11/05 10:38:03;;;;;;;4.30;3.03;;;;;;;;;;4999762;28;20029;-64
2021/11/05 10:40:50;;;;;;;5.47;3.58;;;;;;;;;;5008085;28;20025;-61
2021/11/05 10:43:38;;;;;;;5.03;3.08;;;;;;;;;;5010072;28;20033;-60
2021/11/05 10:46:23;;;;;;;8.75;3.80;;;;;;;;;;5008746;28;20030;-61
2021/11/05 10:49:25;;;;;;;6.13;3.38;;;;;;;;;;5000729;28;20034;-60
2021/11/05 10:52:18;;;;;;;6.18;3.38;;;;;;;;;;5012695;28;20044;-61
2021/11/05 10:55:07;;;;;;;5.70;3.42;;;;;;;;;;5010652;28;20122;-64
2021/11/05 10:57:55;;;;;;;5.07;3.27;;;;;;;;;;5007769;28;20022;-61
2021/11/05 11:00:40;;;;;;;7.20;3.78;;;;;;;;;;4995485;28;20049;-63
2021/11/05 11:03:31;;;;;;;6.00;3.97;;;;;;;;;;4999677;28;20033;-64
2021/11/05 11:06:18;;;;;;;5.57;3.53;;;;;;;;;;5011872;28;20038;-65
2021/11/05 11:09:05;;;;;;;6.40;4.00;;;;;;;;;;5008271;28;20029;-63
2021/11/05 11:11:51;;;;;;;5.43;4.43;;;;;;;;;;4996539;28;20037;-62
2021/11/05 11:14:36;;;;;;;6.05;4.35;;;;;;;;;;5009101;28;20570;-64
2021/11/05 11:17:21;;;;;;;6.30;4.35;;;;;;;;;;4992166;28;20033;-63
2021/11/05 11:20:27;;;;;;;8.10;4.68;;;;;;;;;;5006201;28;20034;-62
2021/11/05 11:23:12;;;;;;;6.03;4.28;;;;;;;;;;5021956;28;20041;-62
2021/11/05 11:25:59;;;;;;;6.22;4.70;;;;;;;;;;5005085;28;20025;-63
2021/11/05 11:28:44;;;;;;;33.05;23.17;;;;;;;;;;5004209;28;20036;-63
2021/11/05 11:31:30;;;;;;;10.43;6.75;;;;;;;;;;5011335;28;20446;-58
2021/11/05 11:34:16;;;;;;;19.98;9.98;;;;;;;;;;5009216;28;20559;-70
2021/11/05 11:37:02;;;;;;;12.30;7.18;;;;;;;;;;5009389;28;20183;-70
2021/11/05 11:39:47;;;;;;;13.10;7.88;;;;;;;;;;5012938;28;20077;-74
2021/11/05 11:42:33;;;;;;;12.85;7.35;;;;;;;;;;4997664;28;20044;-74
2021/11/05 11:45:18;;;;;;;10.90;6.70;;;;;;;;;;5007499;28;20021;-74
2021/11/05 11:48:03;;;;;;;9.70;6.25;;;;;;;;;;5023698;28;20373;-75
2021/11/05 11:50:49;;;;;;;8.30;5.35;;;;;;;;;;5011865;28;20101;-66
2021/11/05 11:53:34;;;;;;;8.27;5.80;;;;;;;;;;5009672;28;20029;-68
2021/11/05 11:56:30;;;;;;;9.35;6.50;;;;;;;;;;4989919;28;20025;-68
2021/11/05 11:59:17;;;;;;;7.82;5.78;;;;;;;;;;5014757;28;20083;-68
2021/11/05 12:02:02;;;;;;;9.00;6.40;;;;;;;;;;4997714;28;20073;-62
2021/11/05 12:04:47;;;;;;;9.98;5.78;;;;;;;;;;4993706;28;20029;-62
2021/11/05 12:07:38;;;;;;;8.80;6.43;;;;;;;;;;5009777;28;20034;-59
2021/11/05 12:10:26;;;;;;;8.18;5.38;;;;;;;;;;5028322;28;20082;-63
2021/11/05 12:13:30;;;;;;;9.48;5.20;;;;;;;;;;5009896;28;20508;-63
2021/11/05 12:16:26;;;;;;;7.65;5.10;;;;;;;;;;5026151;28;20045;-63
2021/11/05 12:19:12;;;;;;;7.50;5.10;;;;;;;;;;5011282;28;20041;-63
2021/11/05 12:22:15;;;;;;;6.72;4.72;;;;;;;;;;5013644;28;20072;-63
2021/11/05 12:25:16;;;;;;;7.00;4.25;;;;;;;;;;5016876;28;20132;-63
2021/11/05 12:28:16;;;;;;;5.97;4.50;;;;;;;;;;5028704;28;20033;-62
2021/11/05 12:31:20;;;;;;;6.20;4.35;;;;;;;;;;5013232;28;20064;-62
2021/11/05 12:34:24;;;;;;;6.50;4.63;;;;;;;;;;5011153;28;20033;-62
2021/11/05 12:37:09;;;;;;;6.72;5.03;;;;;;;;;;5009673;28;20018;-64
2021/11/05 12:39:55;;;;;;;7.22;4.60;;;;;;;;;;5014389;28;20480;-63
2021/11/05 12:42:40;;;;;;;6.93;4.82;;;;;;;;;;5008115;28;20051;-61
2021/11/05 12:45:44;;;;;;;7.05;4.55;;;;;;;;;;5024957;28;20068;-64
2021/11/05 12:48:35;;;;;;;7.05;5.05;;;;;;;;;;5000193;28;20114;-60
2021/11/05 12:51:20;;;;;;;7.30;4.40;;;;;;;;;;5008021;28;20025;-61
2021/11/05 12:54:25;;;;;;;8.07;5.05;;;;;;;;;;5013704;28;20171;-61
2021/11/05 12:57:10;;;;;;;6.82;4.43;;;;;;;;;;5020484;28;20064;-63
2021/11/05 12:59:55;;;;;;;5.88;4.57;;;;;;;;;;5012729;28;20033;-60
2021/11/05 13:02:41;;;;;;;6.68;4.82;;;;;;;;;;5008025;28;20041;-62
2021/11/05 13:05:27;;;;;;;7.10;5.07;;;;;;;;;;5008099;28;20106;-61
2021/11/05 13:08:12;;;;;;;5.22;4.03;;;;;;;;;;5008834;28;20496;-61
2021/11/05 13:11:04;;;;;;;7.00;4.65;;;;;;;;;;5007600;28;20076;-60
2021/11/05 13:13:54;;;;;;;6.75;4.78;;;;;;;;;;5007694;28;20033;-62
2021/11/05 13:16:39;;;;;;;6.93;4.93;;;;;;;;;;5028785;28;20040;-60
2021/11/05 13:19:24;;;;;;;8.80;4.88;;;;;;;;;;5008184;28;20053;-63
2021/11/05 13:22:09;;;;;;;6.72;5.20;;;;;;;;;;5019344;28;20527;-64
2021/11/05 13:25:09;;;;;;;7.00;5.22;;;;;;;;;;5004355;28;20025;-61
2021/11/05 13:27:54;;;;;;;;;;;;;;;;;;5013922;28;20079;-59
2021/11/05 13:30:47;;;;;;;7.72;5.15;;;;;;;;;;5013460;28;22006;-61
2021/11/05 13:33:33;;;;;;;7.88;5.60;;;;;;;;;;5000625;28;20104;-61
2021/11/05 13:36:19;;;;;;;8.13;5.45;;;;;;;;;;5011425;28;20448;-60
2021/11/05 13:39:04;;;;;;;7.82;5.38;;;;;;;;;;5021728;28;20540;-59
2021/11/05 13:41:49;;;;;;;8.13;5.47;;;;;;;;;;5012013;28;20541;-65
2021/11/05 13:44:35;;;;;;;7.47;5.53;;;;;;;;;;5013027;28;20180;-65
2021/11/05 13:47:20;;;;;;;8.57;5.30;;;;;;;;;;5005562;28;20505;-65
2021/11/05 13:50:07;;;;;;;10.48;5.85;;;;;;;;;;5008938;28;20493;-64
2021/11/05 13:53:08;;;;;;;8.82;5.97;;;;;;;;;;5011096;28;20026;-64
2021/11/05 13:55:53;;;;;;;9.45;6.35;;;;;;;;;;5007997;28;20056;-64
2021/11/05 13:58:38;;;;;;;9.02;6.57;;;;;;;;;;5008662;28;20095;-63
2021/11/05 14:01:25;;;;;;;8.93;6.10;;;;;;;;;;5008492;28;20045;-63
2021/11/05 14:04:12;;;;;;;10.70;7.57;;;;;;;;;;5011797;28;20045;-63
2021/11/05 14:06:58;;;;;;;11.25;8.57;;;;;;;;;;5012514;28;20029;-63
2021/11/05 14:09:43;;;;;;;11.50;8.15;;;;;;;;;;5008121;28;20038;-61
2021/11/05 14:12:29;;;;;;;11.70;8.43;;;;;;;;;;5010644;28;20391;-61
2021/11/05 14:15:22;;;;;;;9.77;7.28;;;;;;;;;;4999702;28;20140;-62
2021/11/05 14:18:15;;;;;;;9.50;7.05;;;;;;;;;;5001850;28;20022;-61
2021/11/05 14:21:16;;;;;;;9.57;6.93;;;;;;;;;;5009466;28;20048;-61
2021/11/05 14:24:09;;;;;;;9.55;7.07;;;;;;;;;;5014866;28;20052;-62
2021/11/05 14:27:07;;;;;;;10.10;7.03;;;;;;;;;;5002439;28;20030;-63
2021/11/05 14:29:54;;;;;;;9.98;7.25;;;;;;;;;;5003080;28;20119;-62
2021/11/05 14:32:44;;;;;;;8.52;6.63;;;;;;;;;;5000300;28;20049;-63
2021/11/05 14:35:29;;;;;;;8.25;6.45;;;;;;;;;;5005675;28;20041;-62
2021/11/05 14:38:15;;;;;;;9.70;7.15;;;;;;;;;;5024586;23;20054;-64
2021/11/05 14:41:01;;;;;;;11.38;7.50;;;;;;;;;;4996447;28;20025;-63
2021/11/05 14:43:46;;;;;;;9.43;7.28;;;;;;;;;;4982980;28;20023;-63
2021/11/05 14:46:42;;;;;;;9.52;7.00;;;;;;;;;;5005777;28;20504;-64
2021/11/05 14:49:27;;;;;;;12.95;7.88;;;;;;;;;;5006639;28;20030;-63
2021/11/05 14:52:14;;;;;;;12.23;7.70;;;;;;;;;;5011644;28;20026;-62
2021/11/05 14:55:05;;;;;;;24.67;18.13;;;;;;;;;;5028396;28;20509;-63
2021/11/05 14:57:52;;;;;;;29.48;20.92;;;;;;;;;;5010429;28;20543;-66
2021/11/05 15:00:39;;;;;;;19.27;15.43;;;;;;;;;;5008707;28;20034;-65
2021/11/05 15:03:29;;;;;;;12.68;8.75;;;;;;;;;;4990064;28;20026;-66
2021/11/05 15:06:25;;;;;;;12.05;8.40;;;;;;;;;;4984197;28;20060;-64
2021/11/05 15:09:12;;;;;;;10.70;7.60;;;;;;;;;;5013455;28;20200;-68
2021/11/05 15:11:57;;;;;;;12.52;8.93;;;;;;;;;;4983601;28;20030;-66
2021/11/05 15:14:42;;;;;;;11.85;8.68;;;;;;;;;;4980088;28;20069;-62
2021/11/05 15:17:27;;;;;;;11.43;9.27;;;;;;;;;;4983983;28;20709;-60
2021/11/05 15:20:13;;;;;;;12.13;9.05;;;;;;;;;;4987109;28;20023;-63
2021/11/05 15:22:58;;;;;;;12.10;9.05;;;;;;;;;;4985654;28;20117;-63
2021/11/05 15:25:45;;;;;;;9.10;6.85;;;;;;;;;;4987647;28;20482;-62
2021/11/05 15:28:32;;;;;;;11.48;7.20;;;;;;;;;;4992158;28;20064;-61
2021/11/05 15:31:18;;;;;;;9.73;7.05;;;;;;;;;;4992643;28;20058;-60
2021/11/05 15:34:04;;;;;;;13.43;9.00;;;;;;;;;;4989530;28;20061;-63
2021/11/05 15:36:49;;;;;;;22.35;15.68;;;;;;;;;;4990682;28;20030;-64
2021/11/05 15:39:34;;;;;;;40.75;30.30;;;;;;;;;;4991448;28;20121;-64
2021/11/05 15:42:20;;;;;;;20.45;13.68;;;;;;;;;;5001291;28;20069;-62
2021/11/05 15:45:05;;;;;;;14.90;9.13;;;;;;;;;;4990473;28;20030;-61
2021/11/05 15:47:54;;;;;;;11.52;8.10;;;;;;;;;;4984675;28;20030;-64
2021/11/05 15:50:39;;;;;;;10.32;7.72;;;;;;;;;;4983221;28;20052;-68
2021/11/05 15:53:24;;;;;;;13.05;8.30;;;;;;;;;;4991784;28;20500;-63
2021/11/05 15:56:14;;;;;;;12.73;7.93;;;;;;;;;;4996893;28;20386;-65
2021/11/05 15:59:01;;;;;;;12.88;9.55;;;;;;;;;;4986954;28;20049;-64
2021/11/05 16:01:46;;;;;;;13.00;8.27;;;;;;;;;;4986973;28;20116;-62
2021/11/05 16:04:31;;;;;;;12.10;9.18;;;;;;;;;;4987791;28;20026;-64
2021/11/05 16:07:16;;;;;;;35.80;24.10;;;;;;;;;;4990415;28;20034;-65
2021/11/05 16:10:05;;;;;;;25.42;20.05;;;;;;;;;;4991357;28;20058;-63
2021/11/05 16:12:51;;;;;;;12.80;9.57;;;;;;;;;;4996105;28;20025;-61
2021/11/05 16:15:36;;;;;;;12.90;8.85;;;;;;;;;;4991364;28;20371;-66
2021/11/05 16:18:22;;;;;;;13.73;9.73;;;;;;;;;;4993403;28;20057;-65
2021/11/05 16:21:07;;;;;;;14.60;10.07;;;;;;;;;;4991187;28;20117;-62
2021/11/05 16:23:53;;;;;;;15.63;9.43;;;;;;;;;;4986009;28;20026;-61
2021/11/05 16:26:38;;;;;;;13.35;9.45;;;;;;;;;;4987431;28;20081;-62
2021/11/05 16:29:23;;;;;;;11.73;9.48;;;;;;;;;;4993585;28;20036;-65
2021/11/05 16:32:09;;;;;;;17.38;9.80;;;;;;;;;;4986090;28;20121;-65
2021/11/05 16:34:54;;;;;;;12.32;8.90;;;;;;;;;;4989257;28;20030;-65